createdAt,value
2019-02-18T00:00:49.847Z,5.76
2019-02-18T00:03:18.227Z,5.78
2019-02-18T00:05:46.480Z,5.79
2019-02-18T00:08:14.770Z,5.77
2019-02-18T00:10:43.049Z,5.86
2019-02-18T00:13:11.306Z,5.87
2019-02-18T00:15:39.618Z,5.85
2019-02-18T00:18:07.980Z,5.85
2019-02-18T00:20:36.396Z,5.89
2019-02-18T00:23:04.664Z,5.97
2019-02-18T00:25:32.925Z,5.97
2019-02-18T00:28:01.206Z,5.98
2019-02-18T00:30:29.539Z,6.00
2019-02-18T00:32:57.937Z,5.99
2019-02-18T00:35:26.191Z,5.99
2019-02-18T00:37:54.440Z,6.02
2019-02-18T00:40:22.714Z,6.02
2019-02-18T00:42:50.978Z,5.98
2019-02-18T00:45:19.346Z,6.01
2019-02-18T00:47:48.206Z,6.01
2019-02-18T00:50:16.604Z,6.01
2019-02-18T00:52:44.874Z,5.93
2019-02-18T00:55:13.167Z,5.93
2019-02-18T00:57:41.432Z,5.91
2019-02-18T01:00:16.596Z,5.86
2019-02-18T01:02:44.862Z,5.78
2019-02-18T01:05:13.433Z,5.77
2019-02-18T01:07:41.689Z,5.73
2019-02-18T01:10:13.342Z,5.73
2019-02-18T01:12:41.698Z,5.67
2019-02-18T01:15:12.973Z,5.67
2019-02-18T01:17:41.695Z,5.61
2019-02-18T01:20:12.113Z,5.61
2019-02-18T01:22:40.400Z,5.53
2019-02-18T01:25:11.165Z,5.53
2019-02-18T01:27:39.444Z,5.49
2019-02-18T01:30:10.838Z,5.40
2019-02-18T01:32:39.144Z,5.38
2019-02-18T01:35:07.466Z,5.35
2019-02-18T01:37:45.282Z,5.35
2019-02-18T01:40:08.963Z,5.29
2019-02-18T01:42:37.220Z,5.29
2019-02-18T01:45:08.066Z,5.25
2019-02-18T01:47:36.345Z,5.16
2019-02-18T01:50:07.293Z,5.16
2019-02-18T01:52:35.582Z,5.11
2019-02-18T01:55:03.895Z,5.10
2019-02-18T01:57:32.194Z,5.10
2019-02-18T02:00:01.215Z,5.06
2019-02-18T02:02:29.678Z,5.01
2019-02-18T02:04:58.009Z,4.99
2019-02-18T02:07:26.261Z,4.99
2019-02-18T02:09:54.570Z,4.96
2019-02-18T02:12:22.846Z,4.94
2019-02-18T02:14:52.791Z,4.93
2019-02-18T02:17:21.049Z,4.90
2019-02-18T02:19:50.554Z,4.86
2019-02-18T02:22:18.839Z,4.85
2019-02-18T02:24:47.207Z,4.82
2019-02-18T02:27:15.510Z,4.83
2019-02-18T02:29:43.797Z,4.84
2019-02-18T02:32:12.610Z,4.83
2019-02-18T02:34:40.944Z,4.84
2019-02-18T02:37:09.283Z,4.86
2019-02-18T02:39:37.534Z,4.85
2019-02-18T02:42:05.817Z,4.85
2019-02-18T02:44:34.112Z,4.86
2019-02-18T02:47:02.519Z,4.86
2019-02-18T02:49:30.809Z,4.83
2019-02-18T02:51:59.168Z,4.83
2019-02-18T02:54:27.454Z,4.81
2019-02-18T02:56:55.712Z,4.79
2019-02-18T02:59:23.989Z,4.76
2019-02-18T03:01:52.237Z,4.77
2019-02-18T03:04:20.510Z,4.75
2019-02-18T03:06:48.763Z,4.70
2019-02-18T03:09:17.410Z,4.69
2019-02-18T03:11:45.747Z,4.69
2019-02-18T03:14:13.987Z,4.67
2019-02-18T03:16:42.549Z,4.66
2019-02-18T03:19:10.809Z,4.56
2019-02-18T03:21:39.054Z,4.56
2019-02-18T03:24:07.394Z,4.56
2019-02-18T03:26:35.638Z,4.51
2019-02-18T03:29:31.114Z,4.51
2019-02-18T03:31:59.428Z,4.49
2019-02-18T03:34:30.939Z,4.46
2019-02-18T03:36:59.283Z,4.43
2019-02-18T03:39:27.628Z,4.41
2019-02-18T03:41:55.935Z,4.39
2019-02-18T03:44:24.184Z,4.34
2019-02-18T03:46:52.445Z,4.31
2019-02-18T03:49:20.822Z,4.29
2019-02-18T03:51:49.076Z,4.29
2019-02-18T03:54:17.366Z,4.30
2019-02-18T03:56:45.647Z,4.28
2019-02-18T03:59:13.895Z,4.28
2019-02-18T04:01:42.181Z,4.27
2019-02-18T04:04:10.569Z,4.25
2019-02-18T04:06:38.837Z,4.26
2019-02-18T04:09:07.223Z,4.26
2019-02-18T04:11:35.464Z,4.25
2019-02-18T04:14:03.727Z,4.25
2019-02-18T04:16:32.024Z,4.23
2019-02-18T04:19:00.276Z,4.22
2019-02-18T04:21:28.543Z,4.20
2019-02-18T04:23:56.851Z,4.21
2019-02-18T04:26:25.096Z,4.22
2019-02-18T04:28:53.360Z,4.20
2019-02-18T04:31:21.689Z,4.19
2019-02-18T04:33:49.967Z,4.19
2019-02-18T04:36:18.286Z,4.20
2019-02-18T04:38:53.889Z,4.22
2019-02-18T04:41:16.937Z,4.23
2019-02-18T04:43:45.249Z,4.24
2019-02-18T04:46:13.511Z,4.25
2019-02-18T04:48:41.748Z,4.22
2019-02-18T04:51:10.064Z,4.21
2019-02-18T04:53:38.436Z,4.20
2019-02-18T04:56:06.698Z,4.17
2019-02-18T04:58:35.614Z,4.17
2019-02-18T05:01:03.889Z,4.19
2019-02-18T05:03:32.146Z,4.18
2019-02-18T05:06:00.742Z,4.16
2019-02-18T05:08:28.982Z,4.15
2019-02-18T05:10:57.301Z,4.16
2019-02-18T05:13:25.606Z,4.15
2019-02-18T05:15:53.853Z,4.15
2019-02-18T05:18:22.131Z,4.15
2019-02-18T05:20:50.405Z,4.13
2019-02-18T05:23:18.692Z,4.12
2019-02-18T05:25:47.052Z,4.10
2019-02-18T05:28:16.195Z,4.10
2019-02-18T05:30:44.446Z,4.12
2019-02-18T05:33:12.700Z,4.18
2019-02-18T05:35:41.092Z,4.20
2019-02-18T05:38:09.346Z,4.23
2019-02-18T05:40:37.618Z,4.25
2019-02-18T05:43:05.996Z,4.28
2019-02-18T05:45:34.391Z,4.29
2019-02-18T05:48:02.629Z,4.28
2019-02-18T05:50:30.907Z,4.26
2019-02-18T05:52:59.246Z,4.25
2019-02-18T05:55:27.488Z,4.23
2019-02-18T05:57:55.737Z,4.20
2019-02-18T06:00:24.078Z,4.18
2019-02-18T06:02:52.332Z,4.16
2019-02-18T06:05:20.603Z,4.15
2019-02-18T06:07:49.547Z,4.13
2019-02-18T06:10:17.810Z,4.11
2019-02-18T06:12:46.086Z,4.08
2019-02-18T06:15:14.354Z,4.04
2019-02-18T06:17:42.632Z,4.02
2019-02-18T06:20:10.905Z,3.98
2019-02-18T06:22:39.232Z,3.95
2019-02-18T06:25:07.587Z,3.93
2019-02-18T06:27:35.854Z,3.90
2019-02-18T06:30:04.339Z,3.88
2019-02-18T06:32:32.627Z,3.86
2019-02-18T06:35:01.020Z,3.84
2019-02-18T06:37:29.271Z,3.82
2019-02-18T06:39:57.579Z,3.82
2019-02-18T06:42:25.839Z,3.81
2019-02-18T06:44:55.739Z,3.79
2019-02-18T06:47:25.274Z,3.78
2019-02-18T06:49:53.621Z,3.75
2019-02-18T06:52:21.890Z,3.73
2019-02-18T06:54:50.166Z,3.69
2019-02-18T06:57:25.642Z,3.67
2019-02-18T06:59:54.404Z,3.67
2019-02-18T07:02:24.293Z,3.68
2019-02-18T07:04:54.188Z,3.66
2019-02-18T07:07:42.044Z,3.66
2019-02-18T07:10:21.413Z,3.65
2019-02-18T07:12:49.692Z,3.64
2019-02-18T07:15:17.961Z,3.63
2019-02-18T07:17:46.224Z,3.62
2019-02-18T07:20:14.510Z,3.61
2019-02-18T07:22:42.804Z,3.60
2019-02-18T07:25:11.050Z,3.61
2019-02-18T07:27:39.723Z,3.62
2019-02-18T07:30:11.248Z,3.64
2019-02-18T07:32:39.529Z,3.65
2019-02-18T07:35:07.804Z,3.67
2019-02-18T07:37:36.087Z,3.70
2019-02-18T07:40:06.404Z,3.74
2019-02-18T07:42:34.705Z,3.80
2019-02-18T07:45:02.969Z,3.88
2019-02-18T07:47:31.306Z,3.96
2019-02-18T07:49:59.581Z,4.03
2019-02-18T07:52:27.946Z,4.11
2019-02-18T07:54:56.225Z,4.19
2019-02-18T07:57:24.480Z,4.26
2019-02-18T07:59:52.724Z,4.34
2019-02-18T08:02:21.081Z,4.41
2019-02-18T08:04:49.327Z,4.51
2019-02-18T08:07:17.586Z,4.60
2019-02-18T08:09:46.269Z,4.67
2019-02-18T08:12:14.518Z,4.74
2019-02-18T08:14:42.772Z,4.82
2019-02-18T08:17:11.399Z,4.94
2019-02-18T08:19:39.685Z,5.04
2019-02-18T08:22:08.059Z,5.09
2019-02-18T08:24:36.382Z,5.24
2019-02-18T08:27:04.761Z,5.31
2019-02-18T08:29:33.019Z,5.37
2019-02-18T08:32:01.279Z,5.53
2019-02-18T08:34:29.567Z,5.53
2019-02-18T08:36:57.803Z,5.64
2019-02-18T08:39:26.104Z,5.72
2019-02-18T08:41:54.408Z,5.72
2019-02-18T08:44:22.655Z,5.95
2019-02-18T08:46:51.015Z,6.06
2019-02-18T08:49:19.308Z,6.06
2019-02-18T08:51:47.588Z,6.25
2019-02-18T08:54:15.899Z,6.33
2019-02-18T08:56:44.167Z,6.33
2019-02-18T08:59:12.445Z,6.40
2019-02-18T09:01:40.817Z,6.44
2019-02-18T09:04:09.120Z,6.54
2019-02-18T09:06:37.427Z,6.60
2019-02-18T09:09:05.965Z,6.66
2019-02-18T09:11:34.229Z,6.74
2019-02-18T09:14:02.500Z,6.83
2019-02-18T09:16:32.611Z,6.91
2019-02-18T09:19:00.799Z,7.03
2019-02-18T09:21:30.780Z,7.14
2019-02-18T09:24:00.670Z,7.26
2019-02-18T09:26:28.951Z,7.36
2019-02-18T09:28:57.224Z,7.48
2019-02-18T09:31:27.129Z,7.56
2019-02-18T09:33:55.533Z,7.70
2019-02-18T09:36:23.768Z,7.81
2019-02-18T09:38:52.028Z,7.94
2019-02-18T09:41:20.397Z,8.06
2019-02-18T09:43:48.635Z,8.14
2019-02-18T09:46:16.891Z,8.30
2019-02-18T09:48:45.151Z,8.38
2019-02-18T09:51:13.399Z,8.47
2019-02-18T09:53:41.708Z,8.58
2019-02-18T09:56:09.994Z,8.68
2019-02-18T09:58:38.233Z,8.73
2019-02-18T10:01:06.556Z,8.79
2019-02-18T10:03:34.852Z,8.84
2019-02-18T10:06:03.127Z,8.92
2019-02-18T10:08:31.486Z,8.99
2019-02-18T10:10:59.839Z,9.06
2019-02-18T10:13:28.043Z,9.18
2019-02-18T10:15:56.366Z,9.26
2019-02-18T10:18:24.618Z,9.37
2019-02-18T10:20:52.870Z,9.48
2019-02-18T10:23:21.216Z,9.63
2019-02-18T10:25:49.456Z,9.81
2019-02-18T10:28:17.702Z,9.96
2019-02-18T10:30:46.039Z,10.13
2019-02-18T10:33:14.417Z,10.29
2019-02-18T10:35:42.678Z,10.45
2019-02-18T10:38:10.926Z,10.62
2019-02-18T10:40:39.218Z,10.79
2019-02-18T10:43:07.475Z,10.95
2019-02-18T10:45:35.753Z,11.13
2019-02-18T10:48:04.016Z,11.26
2019-02-18T10:50:32.323Z,11.42
2019-02-18T10:53:00.757Z,11.58
2019-02-18T10:55:29.003Z,11.72
2019-02-18T10:57:57.291Z,11.85
2019-02-18T11:00:25.861Z,11.98
2019-02-18T11:02:54.123Z,12.08
2019-02-18T11:05:22.375Z,12.17
2019-02-18T11:07:50.672Z,12.26
2019-02-18T11:10:19.044Z,12.34
2019-02-18T11:12:47.788Z,12.45
2019-02-18T11:15:16.135Z,12.54
2019-02-18T11:17:44.990Z,12.66
2019-02-18T11:20:13.785Z,12.80
2019-02-18T11:22:42.041Z,12.91
2019-02-18T11:25:11.757Z,13.02
2019-02-18T11:27:40.048Z,13.11
2019-02-18T11:30:11.698Z,13.19
2019-02-18T11:32:39.950Z,13.28
2019-02-18T11:35:08.217Z,13.34
2019-02-18T11:37:36.523Z,13.39
2019-02-18T11:40:16.003Z,13.44
2019-02-18T11:42:44.249Z,13.56
2019-02-18T11:45:14.790Z,13.69
2019-02-18T11:47:43.107Z,13.74
2019-02-18T11:50:13.991Z,13.84
2019-02-18T11:52:42.291Z,13.95
2019-02-18T11:55:14.281Z,14.03
2019-02-18T11:57:42.941Z,14.11
2019-02-18T12:00:13.953Z,14.13
2019-02-18T12:02:42.229Z,14.13
2019-02-18T12:05:11.202Z,14.13
2019-02-18T12:07:39.498Z,14.10
2019-02-18T12:10:09.983Z,14.08
2019-02-18T12:12:38.644Z,14.06
2019-02-18T12:15:12.662Z,14.02
2019-02-18T12:17:41.078Z,14.00
2019-02-18T12:20:11.820Z,14.09
2019-02-18T12:22:40.297Z,14.16
2019-02-18T12:25:09.961Z,14.24
2019-02-18T12:27:38.588Z,14.29
2019-02-18T12:30:17.839Z,14.39
2019-02-18T12:32:46.149Z,14.38
2019-02-18T12:35:14.419Z,14.47
2019-02-18T12:37:42.727Z,14.49
2019-02-18T12:40:13.269Z,14.53
2019-02-18T12:42:42.422Z,14.56
2019-02-18T12:45:12.090Z,14.60
2019-02-18T12:47:40.405Z,14.62
2019-02-18T12:50:10.004Z,14.61
2019-02-18T12:52:38.315Z,14.55
2019-02-18T12:55:08.559Z,14.51
2019-02-18T12:57:37.143Z,14.45
2019-02-18T13:00:11.345Z,14.45
2019-02-18T13:02:44.283Z,14.45
2019-02-18T13:05:09.770Z,14.43
2019-02-18T13:07:38.043Z,14.40
2019-02-18T13:10:08.204Z,14.38
2019-02-18T13:12:36.569Z,14.38
2019-02-18T13:15:08.381Z,14.35
2019-02-18T13:17:36.642Z,14.39
2019-02-18T13:20:06.362Z,14.40
2019-02-18T13:22:34.677Z,14.41
2019-02-18T13:25:02.953Z,14.43
2019-02-18T13:27:31.203Z,14.44
2019-02-18T13:29:59.603Z,14.45
2019-02-18T13:32:27.882Z,14.43
2019-02-18T13:34:56.185Z,14.44
2019-02-18T13:37:24.453Z,14.47
2019-02-18T13:39:52.713Z,14.47
2019-02-18T13:42:21.127Z,14.47
2019-02-18T13:44:49.492Z,14.45
2019-02-18T13:47:18.118Z,14.45
2019-02-18T13:49:46.728Z,14.43
2019-02-18T13:52:14.981Z,14.45
2019-02-18T13:54:43.301Z,14.46
2019-02-18T13:57:11.676Z,14.46
2019-02-18T13:59:39.988Z,14.47
2019-02-18T14:02:09.051Z,14.49
2019-02-18T14:04:37.599Z,14.52
2019-02-18T14:07:05.853Z,14.56
2019-02-18T14:09:34.250Z,14.59
2019-02-18T14:12:02.554Z,14.65
2019-02-18T14:14:30.801Z,14.66
2019-02-18T14:16:59.255Z,14.70
2019-02-18T14:19:27.919Z,14.68
2019-02-18T14:21:56.160Z,14.70
2019-02-18T14:24:24.445Z,14.76
2019-02-18T14:26:52.707Z,14.87
2019-02-18T14:29:20.991Z,14.97
2019-02-18T14:31:49.599Z,15.08
2019-02-18T14:34:17.949Z,15.20
2019-02-18T14:36:46.267Z,15.31
2019-02-18T14:39:16.172Z,15.40
2019-02-18T14:41:44.485Z,15.46
2019-02-18T14:44:12.762Z,15.52
2019-02-18T14:46:41.123Z,15.59
2019-02-18T14:49:09.375Z,15.63
2019-02-18T14:51:37.934Z,15.68
2019-02-18T14:54:06.186Z,15.74
2019-02-18T14:56:34.466Z,15.73
2019-02-18T14:59:02.737Z,15.71
2019-02-18T15:01:31.088Z,15.69
2019-02-18T15:03:59.468Z,15.72
2019-02-18T15:06:27.764Z,15.71
2019-02-18T15:08:56.008Z,15.65
2019-02-18T15:11:24.403Z,15.59
2019-02-18T15:13:52.655Z,15.51
2019-02-18T15:16:20.938Z,15.44
2019-02-18T15:18:49.967Z,15.36
2019-02-18T15:21:18.272Z,15.25
2019-02-18T15:23:46.822Z,15.10
2019-02-18T15:26:15.079Z,15.00
2019-02-18T15:28:43.371Z,14.93
2019-02-18T15:31:11.674Z,14.84
2019-02-18T15:33:39.947Z,14.76
2019-02-18T15:36:08.274Z,14.66
2019-02-18T15:38:36.521Z,14.59
2019-02-18T15:41:04.851Z,14.49
2019-02-18T15:43:33.143Z,14.39
2019-02-18T15:46:01.458Z,14.31
2019-02-18T15:48:29.787Z,14.26
2019-02-18T15:50:58.061Z,14.19
2019-02-18T15:53:26.328Z,14.11
2019-02-18T15:55:54.880Z,14.07
2019-02-18T15:58:23.136Z,14.00
2019-02-18T16:00:51.468Z,13.94
2019-02-18T16:03:19.712Z,13.91
2019-02-18T16:05:47.995Z,13.85
2019-02-18T16:08:16.312Z,13.79
2019-02-18T16:10:44.725Z,13.73
2019-02-18T16:13:13.012Z,13.68
2019-02-18T16:15:41.276Z,13.62
2019-02-18T16:18:09.561Z,13.53
2019-02-18T16:20:37.829Z,13.44
2019-02-18T16:23:06.096Z,13.36
2019-02-18T16:25:34.377Z,13.27
2019-02-18T16:28:03.046Z,13.20
2019-02-18T16:30:31.328Z,13.12
2019-02-18T16:32:59.635Z,13.03
2019-02-18T16:35:28.323Z,12.96
2019-02-18T16:37:56.616Z,12.88
2019-02-18T16:40:27.244Z,12.78
2019-02-18T16:42:59.220Z,12.71
2019-02-18T16:45:25.752Z,12.65
2019-02-18T16:47:54.035Z,12.55
2019-02-18T16:50:22.303Z,12.49
2019-02-18T16:52:50.695Z,12.36
2019-02-18T16:55:18.991Z,12.23
2019-02-18T16:57:47.243Z,12.13
2019-02-18T17:00:25.068Z,12.06
2019-02-18T17:02:53.455Z,11.97
2019-02-18T17:05:21.708Z,11.90
2019-02-18T17:07:50.020Z,11.83
2019-02-18T17:10:18.284Z,11.75
2019-02-18T17:12:46.818Z,11.65
2019-02-18T17:15:15.147Z,11.56
2019-02-18T17:17:43.433Z,11.46
2019-02-18T17:20:11.819Z,11.37
2019-02-18T17:22:40.276Z,11.29
2019-02-18T17:25:10.825Z,11.22
2019-02-18T17:27:39.230Z,11.17
2019-02-18T17:30:13.471Z,11.11
2019-02-18T17:32:41.797Z,11.06
2019-02-18T17:35:12.171Z,10.98
2019-02-18T17:37:40.463Z,10.87
2019-02-18T17:40:12.750Z,10.79
2019-02-18T17:42:41.415Z,10.70
2019-02-18T17:45:15.151Z,10.58
2019-02-18T17:47:43.408Z,10.44
2019-02-18T17:50:13.773Z,10.31
2019-02-18T17:52:42.032Z,10.24
2019-02-18T17:55:12.357Z,10.18
2019-02-18T17:57:41.033Z,10.10
2019-02-18T18:00:15.944Z,10.03
2019-02-18T18:02:44.969Z,9.93
2019-02-18T18:05:13.259Z,9.85
2019-02-18T18:07:41.508Z,9.80
2019-02-18T18:10:13.547Z,9.70
2019-02-18T18:12:42.146Z,9.59
2019-02-18T18:15:12.926Z,9.51
2019-02-18T18:17:41.752Z,9.42
2019-02-18T18:20:12.135Z,9.38
2019-02-18T18:22:40.765Z,9.35
2019-02-18T18:25:13.561Z,9.34
2019-02-18T18:27:41.906Z,9.33
2019-02-18T18:30:16.150Z,9.28
2019-02-18T18:32:45.262Z,9.22
2019-02-18T18:35:13.744Z,9.17
2019-02-18T18:37:42.102Z,9.11
2019-02-18T18:40:12.804Z,9.07
2019-02-18T18:42:41.924Z,9.00
2019-02-18T18:45:12.368Z,8.94
2019-02-18T18:47:40.781Z,8.86
2019-02-18T18:50:12.051Z,8.81
2019-02-18T18:52:40.302Z,8.76
2019-02-18T18:55:08.605Z,8.72
2019-02-18T18:57:36.954Z,8.67
2019-02-18T19:00:08.729Z,8.64
2019-02-18T19:02:36.989Z,8.60
2019-02-18T19:05:07.616Z,8.55
2019-02-18T19:07:36.142Z,8.52
2019-02-18T19:10:07.102Z,8.45
2019-02-18T19:12:35.384Z,8.40
2019-02-18T19:15:03.825Z,8.36
2019-02-18T19:17:32.099Z,8.32
2019-02-18T19:20:00.406Z,8.30
2019-02-18T19:22:29.114Z,8.28
2019-02-18T19:24:57.400Z,8.25
2019-02-18T19:27:25.858Z,8.20
2019-02-18T19:29:55.046Z,8.17
2019-02-18T19:32:24.187Z,8.11
2019-02-18T19:34:52.489Z,8.07
2019-02-18T19:37:21.258Z,8.06
2019-02-18T19:39:49.508Z,8.08
2019-02-18T19:42:17.808Z,8.08
2019-02-18T19:44:46.187Z,8.09
2019-02-18T19:47:14.444Z,8.12
2019-02-18T19:49:44.053Z,8.14
2019-02-18T19:52:12.758Z,8.15
2019-02-18T19:54:41.781Z,8.13
2019-02-18T19:57:11.759Z,8.12
2019-02-18T19:59:40.011Z,8.11
2019-02-18T20:02:08.361Z,8.11
2019-02-18T20:04:36.625Z,8.11
2019-02-18T20:07:05.187Z,8.10
2019-02-18T20:09:33.627Z,8.09
2019-02-18T20:12:01.984Z,8.09
2019-02-18T20:14:30.285Z,8.08
2019-02-18T20:16:58.569Z,8.07
2019-02-18T20:19:26.883Z,8.04
2019-02-18T20:21:55.185Z,8.01
2019-02-18T20:24:23.730Z,8.00
2019-02-18T20:26:52.024Z,7.98
2019-02-18T20:29:20.304Z,7.94
2019-02-18T20:31:48.560Z,7.90
2019-02-18T20:34:16.836Z,7.85
2019-02-18T20:36:45.109Z,7.81
2019-02-18T20:39:13.680Z,7.83
2019-02-18T20:41:41.960Z,7.82
2019-02-18T20:44:10.212Z,7.79
2019-02-18T20:46:38.570Z,7.78
2019-02-18T20:49:06.820Z,7.79
2019-02-18T20:51:35.119Z,7.80
2019-02-18T20:54:03.404Z,7.79
2019-02-18T20:56:31.668Z,7.78
2019-02-18T20:59:00.065Z,7.77
2019-02-18T21:01:28.399Z,7.76
2019-02-18T21:03:56.677Z,7.72
2019-02-18T21:06:24.927Z,7.68
2019-02-18T21:08:53.207Z,7.64
2019-02-18T21:11:21.741Z,7.62
2019-02-18T21:13:50.025Z,7.61
2019-02-18T21:16:18.348Z,7.58
2019-02-18T21:18:46.936Z,7.54
2019-02-18T21:21:15.242Z,7.51
2019-02-18T21:23:43.475Z,7.47
2019-02-18T21:26:12.168Z,7.45
2019-02-18T21:28:40.453Z,7.42
2019-02-18T21:31:08.831Z,7.38
2019-02-18T21:33:37.080Z,7.35
2019-02-18T21:36:05.363Z,7.30
2019-02-18T21:38:33.775Z,7.28
2019-02-18T21:41:02.032Z,7.28
2019-02-18T21:43:30.359Z,7.25
2019-02-18T21:45:58.669Z,7.23
2019-02-18T21:48:26.975Z,7.21
2019-02-18T21:50:55.351Z,7.18
2019-02-18T21:53:23.714Z,7.15
2019-02-18T21:55:52.108Z,7.13
2019-02-18T21:58:20.797Z,7.10
2019-02-18T22:00:49.046Z,7.06
2019-02-18T22:03:17.827Z,7.03
2019-02-18T22:05:46.234Z,7.00
2019-02-18T22:08:14.552Z,6.97
2019-02-18T22:10:42.805Z,6.96
2019-02-18T22:13:11.088Z,6.94
2019-02-18T22:15:39.619Z,6.91
2019-02-18T22:18:07.965Z,6.90
2019-02-18T22:20:37.042Z,6.88
2019-02-18T22:23:05.389Z,6.87
2019-02-18T22:25:33.633Z,6.85
2019-02-18T22:28:01.890Z,6.80
2019-02-18T22:30:30.241Z,6.78
2019-02-18T22:32:58.773Z,6.76
2019-02-18T22:35:27.110Z,6.74
2019-02-18T22:37:55.413Z,6.71
2019-02-18T22:40:23.928Z,6.68
2019-02-18T22:42:52.213Z,6.65
2019-02-18T22:45:20.460Z,6.63
2019-02-18T22:47:48.781Z,6.60
2019-02-18T22:50:17.215Z,6.56
2019-02-18T22:52:45.534Z,6.52
2019-02-18T22:55:14.137Z,6.47
2019-02-18T22:57:42.468Z,6.44
2019-02-18T23:00:30.958Z,6.41
2019-02-18T23:02:59.387Z,6.36
2019-02-18T23:05:27.652Z,6.24
2019-02-18T23:07:56.008Z,6.24
2019-02-18T23:10:24.254Z,6.28
2019-02-18T23:12:52.548Z,6.22
2019-02-18T23:15:20.852Z,6.22
2019-02-18T23:17:49.160Z,6.18
2019-02-18T23:20:17.605Z,6.15
2019-02-18T23:22:45.958Z,6.14
2019-02-18T23:25:14.362Z,6.13
2019-02-18T23:27:42.641Z,6.09
2019-02-18T23:30:10.911Z,6.06
2019-02-18T23:32:39.455Z,6.07
2019-02-18T23:35:08.186Z,6.00
2019-02-18T23:37:36.459Z,6.03
2019-02-18T23:40:05.724Z,5.99
2019-02-18T23:42:33.964Z,5.89
2019-02-18T23:45:02.247Z,5.89
2019-02-18T23:47:30.499Z,5.87
2019-02-18T23:49:58.882Z,5.87
2019-02-18T23:52:27.119Z,5.85
2019-02-18T23:54:55.382Z,5.85
2019-02-18T23:57:23.657Z,5.83
2019-02-18T23:59:51.911Z,5.78
